sensor_id;sensor_type;location;lat;lon;timestamp;temperature;humidity
5723;DHT22;2886;49.722;8.612;2022-12-10T00:01:46;1.90;99.90
5723;DHT22;2886;49.722;8.612;2022-12-10T00:04:12;2.00;99.90
5723;DHT22;2886;49.722;8.612;2022-12-10T00:06:40;2.00;99.90
5723;DHT22;2886;49.722;8.612;2022-12-10T00:09:09;2.00;99.90
5723;DHT22;2886;49.722;8.612;2022-12-10T00:11:37;2.00;99.90
5723;DHT22;2886;49.722;8.612;2022-12-10T00:14:02;2.10;99.90
5723;DHT22;2886;49.722;8.612;2022-12-10T00:16:29;2.10;99.90
5723;DHT22;2886;49.722;8.612;2022-12-10T00:18:56;2.10;99.90
5723;DHT22;2886;49.722;8.612;2022-12-10T00:21:25;2.00;99.90
5723;DHT22;2886;49.722;8.612;2022-12-10T00:23:51;1.90;99.90
5723;DHT22;2886;49.722;8.612;2022-12-10T00:26:22;2.00;99.90
5723;DHT22;2886;49.722;8.612;2022-12-10T00:28:49;2.00;99.90
5723;DHT22;2886;49.722;8.612;2022-12-10T00:31:17;2.00;99.90
5723;DHT22;2886;49.722;8.612;2022-12-10T00:33:43;1.90;99.90
5723;DHT22;2886;49.722;8.612;2022-12-10T00:36:20;2.00;99.90
5723;DHT22;2886;49.722;8.612;2022-12-10T00:38:47;2.00;99.90
5723;DHT22;2886;49.722;8.612;2022-12-10T00:41:14;2.00;99.90
5723;DHT22;2886;49.722;8.612;2022-12-10T00:43:40;2.00;99.90
5723;DHT22;2886;49.722;8.612;2022-12-10T00:46:06;2.00;99.90
5723;DHT22;2886;49.722;8.612;2022-12-10T00:48:32;2.00;99.90
5723;DHT22;2886;49.722;8.612;2022-12-10T00:51:03;1.90;99.90
5723;DHT22;2886;49.722;8.612;2022-12-10T00:53:31;1.90;99.90
5723;DHT22;2886;49.722;8.612;2022-12-10T00:55:58;1.90;99.90
5723;DHT22;2886;49.722;8.612;2022-12-10T00:58:27;1.80;99.90
5723;DHT22;2886;49.722;8.612;2022-12-10T01:01:09;1.80;99.90
5723;DHT22;2886;49.722;8.612;2022-12-10T01:03:36;1.80;99.90
5723;DHT22;2886;49.722;8.612;2022-12-10T01:06:18;1.80;99.90
5723;DHT22;2886;49.722;8.612;2022-12-10T01:08:44;1.70;99.90
5723;DHT22;2886;49.722;8.612;2022-12-10T01:11:12;1.70;99.90
5723;DHT22;2886;49.722;8.612;2022-12-10T01:13:39;1.70;99.90
5723;DHT22;2886;49.722;8.612;2022-12-10T01:16:06;1.70;99.90
5723;DHT22;2886;49.722;8.612;2022-12-10T01:18:32;1.70;99.90
5723;DHT22;2886;49.722;8.612;2022-12-10T01:21:08;1.70;99.90
5723;DHT22;2886;49.722;8.612;2022-12-10T01:23:35;1.70;99.90
5723;DHT22;2886;49.722;8.612;2022-12-10T01:26:03;1.70;99.90
5723;DHT22;2886;49.722;8.612;2022-12-10T01:28:34;1.70;99.90
5723;DHT22;2886;49.722;8.612;2022-12-10T01:31:02;1.70;99.90
5723;DHT22;2886;49.722;8.612;2022-12-10T01:33:29;1.70;99.90
5723;DHT22;2886;49.722;8.612;2022-12-10T01:35:55;1.70;99.90
5723;DHT22;2886;49.722;8.612;2022-12-10T01:38:20;1.70;99.90
5723;DHT22;2886;49.722;8.612;2022-12-10T01:40:46;1.70;99.90
5723;DHT22;2886;49.722;8.612;2022-12-10T01:43:15;1.70;99.90
5723;DHT22;2886;49.722;8.612;2022-12-10T01:45:40;1.70;99.90
5723;DHT22;2886;49.722;8.612;2022-12-10T01:48:08;1.70;99.90
5723;DHT22;2886;49.722;8.612;2022-12-10T01:50:33;1.70;99.90
5723;DHT22;2886;49.722;8.612;2022-12-10T01:53:00;1.70;99.90
5723;DHT22;2886;49.722;8.612;2022-12-10T01:55:56;1.70;99.90
5723;DHT22;2886;49.722;8.612;2022-12-10T01:58:21;1.80;99.90
5723;DHT22;2886;49.722;8.612;2022-12-10T02:01:08;1.70;99.90
5723;DHT22;2886;49.722;8.612;2022-12-10T02:09:09;1.60;99.90
5723;DHT22;2886;49.722;8.612;2022-12-10T02:12:02;1.60;99.90
5723;DHT22;2886;49.722;8.612;2022-12-10T02:17:42;1.50;99.90
5723;DHT22;2886;49.722;8.612;2022-12-10T02:20:17;1.50;99.90
5723;DHT22;2886;49.722;8.612;2022-12-10T02:22:54;1.50;99.90
5723;DHT22;2886;49.722;8.612;2022-12-10T02:25:39;1.50;99.90
5723;DHT22;2886;49.722;8.612;2022-12-10T02:31:10;1.50;99.90
5723;DHT22;2886;49.722;8.612;2022-12-10T02:33:40;1.50;99.90
5723;DHT22;2886;49.722;8.612;2022-12-10T02:36:09;1.40;99.90
5723;DHT22;2886;49.722;8.612;2022-12-10T02:38:37;1.40;99.90
5723;DHT22;2886;49.722;8.612;2022-12-10T02:41:09;1.40;99.90
5723;DHT22;2886;49.722;8.612;2022-12-10T02:43:36;1.40;99.90
5723;DHT22;2886;49.722;8.612;2022-12-10T02:46:03;1.40;99.90
5723;DHT22;2886;49.722;8.612;2022-12-10T02:48:31;1.40;99.90
5723;DHT22;2886;49.722;8.612;2022-12-10T02:50:58;1.40;99.90
5723;DHT22;2886;49.722;8.612;2022-12-10T02:53:23;1.40;99.90
5723;DHT22;2886;49.722;8.612;2022-12-10T02:56:13;1.30;99.90
5723;DHT22;2886;49.722;8.612;2022-12-10T02:59:19;1.30;99.90
5723;DHT22;2886;49.722;8.612;2022-12-10T03:02:09;1.30;99.90
5723;DHT22;2886;49.722;8.612;2022-12-10T03:07:49;1.30;99.90
5723;DHT22;2886;49.722;8.612;2022-12-10T03:13:11;1.30;99.90
5723;DHT22;2886;49.722;8.612;2022-12-10T03:15:40;1.30;99.90
5723;DHT22;2886;49.722;8.612;2022-12-10T03:18:07;1.40;99.90
5723;DHT22;2886;49.722;8.612;2022-12-10T03:20:38;1.30;99.90
5723;DHT22;2886;49.722;8.612;2022-12-10T03:23:09;1.30;99.90
5723;DHT22;2886;49.722;8.612;2022-12-10T03:25:37;1.30;99.90
5723;DHT22;2886;49.722;8.612;2022-12-10T03:28:06;1.40;99.90
5723;DHT22;2886;49.722;8.612;2022-12-10T03:30:33;1.40;99.90
5723;DHT22;2886;49.722;8.612;2022-12-10T03:33:21;1.40;99.90
5723;DHT22;2886;49.722;8.612;2022-12-10T03:35:47;1.30;99.90
5723;DHT22;2886;49.722;8.612;2022-12-10T03:38:13;1.30;99.90
5723;DHT22;2886;49.722;8.612;2022-12-10T03:40:39;1.30;99.90
5723;DHT22;2886;49.722;8.612;2022-12-10T03:43:05;1.30;99.90
5723;DHT22;2886;49.722;8.612;2022-12-10T03:45:30;1.30;99.90
5723;DHT22;2886;49.722;8.612;2022-12-10T03:47:56;1.30;99.90
5723;DHT22;2886;49.722;8.612;2022-12-10T03:50:22;1.30;99.90
5723;DHT22;2886;49.722;8.612;2022-12-10T03:52:47;1.30;99.90
5723;DHT22;2886;49.722;8.612;2022-12-10T03:55:13;1.30;99.90
5723;DHT22;2886;49.722;8.612;2022-12-10T03:57:38;1.30;99.90
5723;DHT22;2886;49.722;8.612;2022-12-10T04:00:06;1.30;99.90
5723;DHT22;2886;49.722;8.612;2022-12-10T04:02:32;1.30;99.90
5723;DHT22;2886;49.722;8.612;2022-12-10T04:04:58;1.30;99.90
5723;DHT22;2886;49.722;8.612;2022-12-10T04:07:23;1.30;99.90
5723;DHT22;2886;49.722;8.612;2022-12-10T04:09:49;1.20;99.90
5723;DHT22;2886;49.722;8.612;2022-12-10T04:12:15;1.30;99.90
5723;DHT22;2886;49.722;8.612;2022-12-10T04:14:40;1.20;99.90
5723;DHT22;2886;49.722;8.612;2022-12-10T04:17:25;1.30;99.90
5723;DHT22;2886;49.722;8.612;2022-12-10T04:19:50;1.30;99.90
5723;DHT22;2886;49.722;8.612;2022-12-10T04:22:17;1.30;99.90
5723;DHT22;2886;49.722;8.612;2022-12-10T04:25:01;1.30;99.90
5723;DHT22;2886;49.722;8.612;2022-12-10T04:27:52;1.30;99.90
5723;DHT22;2886;49.722;8.612;2022-12-10T04:30:18;1.30;99.90
5723;DHT22;2886;49.722;8.612;2022-12-10T04:32:44;1.30;99.90
5723;DHT22;2886;49.722;8.612;2022-12-10T04:35:10;1.30;99.90
5723;DHT22;2886;49.722;8.612;2022-12-10T04:37:36;1.30;99.90
5723;DHT22;2886;49.722;8.612;2022-12-10T04:40:02;1.30;99.90
5723;DHT22;2886;49.722;8.612;2022-12-10T04:42:28;1.20;99.90
5723;DHT22;2886;49.722;8.612;2022-12-10T04:44:54;1.20;99.90
5723;DHT22;2886;49.722;8.612;2022-12-10T04:47:19;1.20;99.90
5723;DHT22;2886;49.722;8.612;2022-12-10T04:49:45;1.30;99.90
5723;DHT22;2886;49.722;8.612;2022-12-10T04:52:12;1.30;99.90
5723;DHT22;2886;49.722;8.612;2022-12-10T04:54:39;1.20;99.90
5723;DHT22;2886;49.722;8.612;2022-12-10T04:57:05;1.30;99.90
5723;DHT22;2886;49.722;8.612;2022-12-10T04:59:31;1.30;99.90
5723;DHT22;2886;49.722;8.612;2022-12-10T05:01:57;1.20;99.90
5723;DHT22;2886;49.722;8.612;2022-12-10T05:04:23;1.20;99.90
5723;DHT22;2886;49.722;8.612;2022-12-10T05:06:49;1.20;99.90
5723;DHT22;2886;49.722;8.612;2022-12-10T05:09:15;1.20;99.90
5723;DHT22;2886;49.722;8.612;2022-12-10T05:11:41;1.20;99.90
5723;DHT22;2886;49.722;8.612;2022-12-10T05:14:10;1.20;99.90
5723;DHT22;2886;49.722;8.612;2022-12-10T05:16:36;1.10;99.90
5723;DHT22;2886;49.722;8.612;2022-12-10T05:19:02;1.10;99.90
5723;DHT22;2886;49.722;8.612;2022-12-10T05:21:29;1.10;99.90
5723;DHT22;2886;49.722;8.612;2022-12-10T05:24:16;1.10;99.90
5723;DHT22;2886;49.722;8.612;2022-12-10T05:26:42;1.10;99.90
5723;DHT22;2886;49.722;8.612;2022-12-10T05:29:08;1.00;99.90
5723;DHT22;2886;49.722;8.612;2022-12-10T05:31:34;1.00;99.90
5723;DHT22;2886;49.722;8.612;2022-12-10T05:33:59;1.10;99.90
5723;DHT22;2886;49.722;8.612;2022-12-10T05:36:28;1.00;99.90
5723;DHT22;2886;49.722;8.612;2022-12-10T05:38:55;1.00;99.90
5723;DHT22;2886;49.722;8.612;2022-12-10T05:41:26;1.00;99.90
5723;DHT22;2886;49.722;8.612;2022-12-10T05:43:54;1.00;99.90
5723;DHT22;2886;49.722;8.612;2022-12-10T05:46:22;1.00;99.90
5723;DHT22;2886;49.722;8.612;2022-12-10T05:48:49;1.00;99.90
5723;DHT22;2886;49.722;8.612;2022-12-10T05:51:18;1.00;99.90
5723;DHT22;2886;49.722;8.612;2022-12-10T05:53:44;1.00;99.90
5723;DHT22;2886;49.722;8.612;2022-12-10T05:56:12;0.90;99.90
5723;DHT22;2886;49.722;8.612;2022-12-10T05:58:40;1.00;99.90
5723;DHT22;2886;49.722;8.612;2022-12-10T06:01:08;1.00;99.90
5723;DHT22;2886;49.722;8.612;2022-12-10T06:03:34;1.00;99.90
5723;DHT22;2886;49.722;8.612;2022-12-10T06:06:00;1.00;99.90
5723;DHT22;2886;49.722;8.612;2022-12-10T06:08:25;1.10;99.90
5723;DHT22;2886;49.722;8.612;2022-12-10T06:10:51;1.00;99.90
5723;DHT22;2886;49.722;8.612;2022-12-10T06:13:16;1.00;99.90
5723;DHT22;2886;49.722;8.612;2022-12-10T06:15:42;1.00;99.90
5723;DHT22;2886;49.722;8.612;2022-12-10T06:18:08;1.00;99.90
5723;DHT22;2886;49.722;8.612;2022-12-10T06:20:37;1.00;99.90
5723;DHT22;2886;49.722;8.612;2022-12-10T06:23:03;1.00;99.90
5723;DHT22;2886;49.722;8.612;2022-12-10T06:25:29;1.00;99.90
5723;DHT22;2886;49.722;8.612;2022-12-10T06:27:54;1.00;99.90
5723;DHT22;2886;49.722;8.612;2022-12-10T06:30:20;1.10;99.90
5723;DHT22;2886;49.722;8.612;2022-12-10T06:32:45;1.10;99.90
5723;DHT22;2886;49.722;8.612;2022-12-10T06:35:11;1.10;99.90
5723;DHT22;2886;49.722;8.612;2022-12-10T06:37:37;1.10;99.90
5723;DHT22;2886;49.722;8.612;2022-12-10T06:40:04;1.10;99.90
5723;DHT22;2886;49.722;8.612;2022-12-10T06:42:30;1.10;99.90
5723;DHT22;2886;49.722;8.612;2022-12-10T06:44:55;1.10;99.90
5723;DHT22;2886;49.722;8.612;2022-12-10T06:47:21;1.10;99.90
5723;DHT22;2886;49.722;8.612;2022-12-10T06:49:47;1.10;99.90
5723;DHT22;2886;49.722;8.612;2022-12-10T06:52:13;1.10;99.90
5723;DHT22;2886;49.722;8.612;2022-12-10T06:54:40;1.10;99.90
5723;DHT22;2886;49.722;8.612;2022-12-10T06:57:06;1.10;99.90
5723;DHT22;2886;49.722;8.612;2022-12-10T06:59:33;1.10;99.90
5723;DHT22;2886;49.722;8.612;2022-12-10T07:01:59;1.10;99.90
5723;DHT22;2886;49.722;8.612;2022-12-10T07:04:24;1.10;99.90
5723;DHT22;2886;49.722;8.612;2022-12-10T07:06:50;1.10;99.90
5723;DHT22;2886;49.722;8.612;2022-12-10T07:09:16;1.10;99.90
5723;DHT22;2886;49.722;8.612;2022-12-10T07:11:42;1.10;99.90
5723;DHT22;2886;49.722;8.612;2022-12-10T07:14:10;1.10;99.90
5723;DHT22;2886;49.722;8.612;2022-12-10T07:16:37;1.10;99.90
5723;DHT22;2886;49.722;8.612;2022-12-10T07:19:03;1.10;99.90
5723;DHT22;2886;49.722;8.612;2022-12-10T07:21:32;1.10;99.90
5723;DHT22;2886;49.722;8.612;2022-12-10T07:24:00;1.10;99.90
5723;DHT22;2886;49.722;8.612;2022-12-10T07:26:32;1.00;99.90
5723;DHT22;2886;49.722;8.612;2022-12-10T07:28:59;1.00;99.90
5723;DHT22;2886;49.722;8.612;2022-12-10T07:31:25;1.10;99.90
5723;DHT22;2886;49.722;8.612;2022-12-10T07:33:52;1.00;99.90
5723;DHT22;2886;49.722;8.612;2022-12-10T07:36:19;1.00;99.90
5723;DHT22;2886;49.722;8.612;2022-12-10T07:38:45;1.00;99.90
5723;DHT22;2886;49.722;8.612;2022-12-10T07:41:13;0.90;99.90
5723;DHT22;2886;49.722;8.612;2022-12-10T07:43:40;0.90;99.90
5723;DHT22;2886;49.722;8.612;2022-12-10T07:46:24;0.80;99.90
5723;DHT22;2886;49.722;8.612;2022-12-10T07:48:50;0.80;99.90
5723;DHT22;2886;49.722;8.612;2022-12-10T07:51:18;0.80;99.90
5723;DHT22;2886;49.722;8.612;2022-12-10T07:53:44;0.80;99.90
5723;DHT22;2886;49.722;8.612;2022-12-10T07:56:10;0.80;99.90
5723;DHT22;2886;49.722;8.612;2022-12-10T07:58:36;0.80;99.90
5723;DHT22;2886;49.722;8.612;2022-12-10T08:01:16;0.90;99.90
5723;DHT22;2886;49.722;8.612;2022-12-10T08:03:42;0.90;99.90
5723;DHT22;2886;49.722;8.612;2022-12-10T08:06:11;0.90;99.90
5723;DHT22;2886;49.722;8.612;2022-12-10T08:08:39;0.80;99.90
5723;DHT22;2886;49.722;8.612;2022-12-10T08:11:06;0.80;99.90
5723;DHT22;2886;49.722;8.612;2022-12-10T08:13:32;0.80;99.90
5723;DHT22;2886;49.722;8.612;2022-12-10T08:16:03;0.80;99.90
5723;DHT22;2886;49.722;8.612;2022-12-10T08:18:30;0.80;99.90
5723;DHT22;2886;49.722;8.612;2022-12-10T08:20:56;0.90;99.90
5723;DHT22;2886;49.722;8.612;2022-12-10T08:23:21;0.90;99.90
5723;DHT22;2886;49.722;8.612;2022-12-10T08:25:47;0.90;99.90
5723;DHT22;2886;49.722;8.612;2022-12-10T08:28:13;0.90;99.90
5723;DHT22;2886;49.722;8.612;2022-12-10T08:30:38;0.90;99.90
5723;DHT22;2886;49.722;8.612;2022-12-10T08:33:04;1.00;99.90
5723;DHT22;2886;49.722;8.612;2022-12-10T08:35:29;1.00;99.90
5723;DHT22;2886;49.722;8.612;2022-12-10T08:37:55;1.00;99.90
5723;DHT22;2886;49.722;8.612;2022-12-10T08:40:22;1.10;99.90
5723;DHT22;2886;49.722;8.612;2022-12-10T08:42:47;1.10;99.90
5723;DHT22;2886;49.722;8.612;2022-12-10T08:45:17;1.00;99.90
5723;DHT22;2886;49.722;8.612;2022-12-10T08:47:43;1.00;99.90
5723;DHT22;2886;49.722;8.612;2022-12-10T08:50:09;1.00;99.90
5723;DHT22;2886;49.722;8.612;2022-12-10T08:52:35;1.00;99.90
5723;DHT22;2886;49.722;8.612;2022-12-10T08:55:00;1.00;99.90
5723;DHT22;2886;49.722;8.612;2022-12-10T08:57:26;1.00;99.90
5723;DHT22;2886;49.722;8.612;2022-12-10T08:59:51;1.00;99.90
5723;DHT22;2886;49.722;8.612;2022-12-10T09:02:17;1.00;99.90
5723;DHT22;2886;49.722;8.612;2022-12-10T09:04:43;1.20;99.90
5723;DHT22;2886;49.722;8.612;2022-12-10T09:07:12;1.30;99.90
5723;DHT22;2886;49.722;8.612;2022-12-10T09:09:37;1.40;99.90
5723;DHT22;2886;49.722;8.612;2022-12-10T09:12:03;1.40;99.90
5723;DHT22;2886;49.722;8.612;2022-12-10T09:14:29;1.40;99.90
5723;DHT22;2886;49.722;8.612;2022-12-10T09:16:54;1.50;99.90
5723;DHT22;2886;49.722;8.612;2022-12-10T09:19:20;1.50;99.90
5723;DHT22;2886;49.722;8.612;2022-12-10T09:21:46;1.60;99.90
5723;DHT22;2886;49.722;8.612;2022-12-10T09:24:12;1.60;99.90
5723;DHT22;2886;49.722;8.612;2022-12-10T09:26:38;1.70;99.90
5723;DHT22;2886;49.722;8.612;2022-12-10T09:29:03;1.60;99.90
5723;DHT22;2886;49.722;8.612;2022-12-10T09:31:29;1.50;99.90
5723;DHT22;2886;49.722;8.612;2022-12-10T09:33:54;1.60;99.90
5723;DHT22;2886;49.722;8.612;2022-12-10T09:36:21;1.60;99.90
5723;DHT22;2886;49.722;8.612;2022-12-10T09:38:47;1.70;99.90
5723;DHT22;2886;49.722;8.612;2022-12-10T09:41:41;1.70;99.90
5723;DHT22;2886;49.722;8.612;2022-12-10T09:46:50;1.70;99.90
5723;DHT22;2886;49.722;8.612;2022-12-10T09:52:06;1.90;99.90
5723;DHT22;2886;49.722;8.612;2022-12-10T09:54:43;2.10;99.90
5723;DHT22;2886;49.722;8.612;2022-12-10T09:57:26;2.40;99.90
5723;DHT22;2886;49.722;8.612;2022-12-10T09:59:54;2.40;99.90
5723;DHT22;2886;49.722;8.612;2022-12-10T10:02:25;2.30;99.90
5723;DHT22;2886;49.722;8.612;2022-12-10T10:04:57;2.30;99.90
5723;DHT22;2886;49.722;8.612;2022-12-10T10:07:27;2.30;99.90
5723;DHT22;2886;49.722;8.612;2022-12-10T10:09:59;2.30;99.90
5723;DHT22;2886;49.722;8.612;2022-12-10T10:12:27;2.40;99.90
5723;DHT22;2886;49.722;8.612;2022-12-10T10:14:53;2.40;99.90
5723;DHT22;2886;49.722;8.612;2022-12-10T10:17:23;2.40;99.90
5723;DHT22;2886;49.722;8.612;2022-12-10T10:19:51;2.40;99.90
5723;DHT22;2886;49.722;8.612;2022-12-10T10:22:17;2.50;99.90
5723;DHT22;2886;49.722;8.612;2022-12-10T10:24:44;2.40;99.90
5723;DHT22;2886;49.722;8.612;2022-12-10T10:27:17;2.30;99.90
5723;DHT22;2886;49.722;8.612;2022-12-10T10:29:46;2.50;99.90
5723;DHT22;2886;49.722;8.612;2022-12-10T10:35:00;2.60;99.90
5723;DHT22;2886;49.722;8.612;2022-12-10T10:37:38;2.80;99.90
5723;DHT22;2886;49.722;8.612;2022-12-10T10:40:06;2.90;99.90
5723;DHT22;2886;49.722;8.612;2022-12-10T10:42:37;2.90;99.90
5723;DHT22;2886;49.722;8.612;2022-12-10T10:45:10;2.80;99.90
5723;DHT22;2886;49.722;8.612;2022-12-10T10:48:22;2.70;99.90
5723;DHT22;2886;49.722;8.612;2022-12-10T10:51:05;2.60;99.90
5723;DHT22;2886;49.722;8.612;2022-12-10T10:56:31;2.40;99.90
5723;DHT22;2886;49.722;8.612;2022-12-10T11:01:53;2.30;99.90
5723;DHT22;2886;49.722;8.612;2022-12-10T11:07:02;2.30;99.90
5723;DHT22;2886;49.722;8.612;2022-12-10T11:09:32;2.30;99.90
5723;DHT22;2886;49.722;8.612;2022-12-10T11:12:04;2.20;99.90
5723;DHT22;2886;49.722;8.612;2022-12-10T11:14:39;2.20;99.90
5723;DHT22;2886;49.722;8.612;2022-12-10T11:19:57;2.30;99.90
5723;DHT22;2886;49.722;8.612;2022-12-10T11:22:28;2.40;99.90
5723;DHT22;2886;49.722;8.612;2022-12-10T11:24:54;2.40;99.90
5723;DHT22;2886;49.722;8.612;2022-12-10T11:27:33;2.40;99.90
5723;DHT22;2886;49.722;8.612;2022-12-10T11:30:08;2.50;99.90
5723;DHT22;2886;49.722;8.612;2022-12-10T11:38:37;2.90;99.90
5723;DHT22;2886;49.722;8.612;2022-12-10T11:47:28;2.90;99.90
5723;DHT22;2886;49.722;8.612;2022-12-10T11:55:39;2.40;99.90
5723;DHT22;2886;49.722;8.612;2022-12-10T12:04:14;2.70;99.90
5723;DHT22;2886;49.722;8.612;2022-12-10T12:14:48;2.80;99.90
5723;DHT22;2886;49.722;8.612;2022-12-10T12:17:23;3.00;99.90
5723;DHT22;2886;49.722;8.612;2022-12-10T12:20:05;3.10;99.90
5723;DHT22;2886;49.722;8.612;2022-12-10T12:22:39;3.10;99.90
5723;DHT22;2886;49.722;8.612;2022-12-10T12:27:53;2.90;99.90
5723;DHT22;2886;49.722;8.612;2022-12-10T12:30:22;2.90;99.90
5723;DHT22;2886;49.722;8.612;2022-12-10T12:33:39;2.90;99.90
5723;DHT22;2886;49.722;8.612;2022-12-10T12:35:52;2.80;99.90
5723;DHT22;2886;49.722;8.612;2022-12-10T12:38:31;3.00;99.90
5723;DHT22;2886;49.722;8.612;2022-12-10T12:41:06;3.10;99.90
5723;DHT22;2886;49.722;8.612;2022-12-10T12:43:44;3.20;99.90
5723;DHT22;2886;49.722;8.612;2022-12-10T12:46:20;3.30;99.90
5723;DHT22;2886;49.722;8.612;2022-12-10T12:49:02;3.40;99.90
5723;DHT22;2886;49.722;8.612;2022-12-10T12:51:42;3.40;99.90
5723;DHT22;2886;49.722;8.612;2022-12-10T12:54:11;3.40;99.90
5723;DHT22;2886;49.722;8.612;2022-12-10T13:04:22;3.40;99.90
5723;DHT22;2886;49.722;8.612;2022-12-10T13:09:46;3.50;99.90
5723;DHT22;2886;49.722;8.612;2022-12-10T13:12:31;3.40;99.90
5723;DHT22;2886;49.722;8.612;2022-12-10T13:15:21;3.30;99.90
5723;DHT22;2886;49.722;8.612;2022-12-10T13:18:35;3.30;99.90
5723;DHT22;2886;49.722;8.612;2022-12-10T13:23:51;3.20;99.90
5723;DHT22;2886;49.722;8.612;2022-12-10T13:26:29;3.10;99.90
5723;DHT22;2886;49.722;8.612;2022-12-10T13:29:12;3.10;99.90
5723;DHT22;2886;49.722;8.612;2022-12-10T13:31:39;3.10;99.90
5723;DHT22;2886;49.722;8.612;2022-12-10T13:45:00;3.00;99.90
5723;DHT22;2886;49.722;8.612;2022-12-10T13:47:42;3.10;99.90
5723;DHT22;2886;49.722;8.612;2022-12-10T13:56:06;3.10;99.90
5723;DHT22;2886;49.722;8.612;2022-12-10T13:59:13;3.00;99.90
5723;DHT22;2886;49.722;8.612;2022-12-10T14:07:12;3.10;99.90
5723;DHT22;2886;49.722;8.612;2022-12-10T14:09:53;3.10;99.90
5723;DHT22;2886;49.722;8.612;2022-12-10T14:12:29;3.10;99.90
5723;DHT22;2886;49.722;8.612;2022-12-10T14:15:07;3.00;99.90
5723;DHT22;2886;49.722;8.612;2022-12-10T14:17:38;3.00;99.90
5723;DHT22;2886;49.722;8.612;2022-12-10T14:20:08;3.00;99.90
5723;DHT22;2886;49.722;8.612;2022-12-10T14:22:43;3.00;99.90
5723;DHT22;2886;49.722;8.612;2022-12-10T14:25:16;3.10;99.90
5723;DHT22;2886;49.722;8.612;2022-12-10T14:27:44;3.00;99.90
5723;DHT22;2886;49.722;8.612;2022-12-10T14:30:17;3.10;99.90
5723;DHT22;2886;49.722;8.612;2022-12-10T14:32:43;3.00;99.90
5723;DHT22;2886;49.722;8.612;2022-12-10T14:35:23;3.00;99.90
5723;DHT22;2886;49.722;8.612;2022-12-10T14:37:52;3.00;99.90
5723;DHT22;2886;49.722;8.612;2022-12-10T14:40:39;3.00;99.90
5723;DHT22;2886;49.722;8.612;2022-12-10T14:43:46;3.00;99.90
5723;DHT22;2886;49.722;8.612;2022-12-10T14:46:18;2.90;99.90
5723;DHT22;2886;49.722;8.612;2022-12-10T14:48:48;2.90;99.90
5723;DHT22;2886;49.722;8.612;2022-12-10T14:51:16;2.90;99.90
5723;DHT22;2886;49.722;8.612;2022-12-10T14:53:44;3.00;99.90
5723;DHT22;2886;49.722;8.612;2022-12-10T14:56:17;3.00;99.90
5723;DHT22;2886;49.722;8.612;2022-12-10T14:58:50;3.00;99.90
5723;DHT22;2886;49.722;8.612;2022-12-10T15:01:39;3.00;99.90
5723;DHT22;2886;49.722;8.612;2022-12-10T15:04:15;3.00;99.90
5723;DHT22;2886;49.722;8.612;2022-12-10T15:06:42;3.00;99.90
5723;DHT22;2886;49.722;8.612;2022-12-10T15:09:26;3.00;99.90
5723;DHT22;2886;49.722;8.612;2022-12-10T15:11:57;3.00;99.90
5723;DHT22;2886;49.722;8.612;2022-12-10T15:14:24;3.00;99.90
5723;DHT22;2886;49.722;8.612;2022-12-10T15:16:51;2.90;99.90
5723;DHT22;2886;49.722;8.612;2022-12-10T15:19:32;2.90;99.90
5723;DHT22;2886;49.722;8.612;2022-12-10T15:22:20;2.80;99.90
5723;DHT22;2886;49.722;8.612;2022-12-10T15:24:47;2.80;99.90
5723;DHT22;2886;49.722;8.612;2022-12-10T15:27:18;2.70;99.90
5723;DHT22;2886;49.722;8.612;2022-12-10T15:29:44;2.70;99.90
5723;DHT22;2886;49.722;8.612;2022-12-10T15:35:04;2.50;99.90
5723;DHT22;2886;49.722;8.612;2022-12-10T15:37:34;2.30;99.90
5723;DHT22;2886;49.722;8.612;2022-12-10T15:40:04;2.20;99.90
5723;DHT22;2886;49.722;8.612;2022-12-10T15:42:41;2.10;99.90
5723;DHT22;2886;49.722;8.612;2022-12-10T15:45:24;2.10;99.90
5723;DHT22;2886;49.722;8.612;2022-12-10T15:47:51;1.90;99.90
5723;DHT22;2886;49.722;8.612;2022-12-10T15:50:18;1.90;99.90
5723;DHT22;2886;49.722;8.612;2022-12-10T15:52:44;1.90;99.90
5723;DHT22;2886;49.722;8.612;2022-12-10T15:55:12;2.00;99.90
5723;DHT22;2886;49.722;8.612;2022-12-10T15:57:40;2.10;99.90
5723;DHT22;2886;49.722;8.612;2022-12-10T16:00:24;2.10;99.90
5723;DHT22;2886;49.722;8.612;2022-12-10T16:05:27;2.10;99.90
5723;DHT22;2886;49.722;8.612;2022-12-10T16:07:56;2.10;99.90
5723;DHT22;2886;49.722;8.612;2022-12-10T16:10:25;2.20;99.90
5723;DHT22;2886;49.722;8.612;2022-12-10T16:13:05;2.20;99.90
5723;DHT22;2886;49.722;8.612;2022-12-10T16:15:34;2.30;99.90
5723;DHT22;2886;49.722;8.612;2022-12-10T16:18:02;2.30;99.90
5723;DHT22;2886;49.722;8.612;2022-12-10T16:20:29;2.20;99.90
5723;DHT22;2886;49.722;8.612;2022-12-10T16:22:56;2.20;99.90
5723;DHT22;2886;49.722;8.612;2022-12-10T16:25:24;2.20;99.90
5723;DHT22;2886;49.722;8.612;2022-12-10T16:27:51;2.10;99.90
5723;DHT22;2886;49.722;8.612;2022-12-10T16:30:20;2.10;99.90
5723;DHT22;2886;49.722;8.612;2022-12-10T16:32:47;2.20;99.90
5723;DHT22;2886;49.722;8.612;2022-12-10T16:35:13;2.10;99.90
5723;DHT22;2886;49.722;8.612;2022-12-10T16:37:41;2.10;99.90
5723;DHT22;2886;49.722;8.612;2022-12-10T16:40:07;2.10;99.90
5723;DHT22;2886;49.722;8.612;2022-12-10T16:42:33;2.10;99.90
5723;DHT22;2886;49.722;8.612;2022-12-10T16:44:59;2.10;99.90
5723;DHT22;2886;49.722;8.612;2022-12-10T16:47:24;2.10;99.90
5723;DHT22;2886;49.722;8.612;2022-12-10T16:49:51;2.10;99.90
5723;DHT22;2886;49.722;8.612;2022-12-10T16:52:17;2.10;99.90
5723;DHT22;2886;49.722;8.612;2022-12-10T16:54:42;2.10;99.90
5723;DHT22;2886;49.722;8.612;2022-12-10T16:57:13;2.10;99.90
5723;DHT22;2886;49.722;8.612;2022-12-10T16:59:40;2.00;99.90
5723;DHT22;2886;49.722;8.612;2022-12-10T17:02:14;2.10;99.90
5723;DHT22;2886;49.722;8.612;2022-12-10T17:04:41;2.00;99.90
5723;DHT22;2886;49.722;8.612;2022-12-10T17:07:07;2.00;99.90
5723;DHT22;2886;49.722;8.612;2022-12-10T17:09:33;2.00;99.90
5723;DHT22;2886;49.722;8.612;2022-12-10T17:11:58;1.90;99.90
5723;DHT22;2886;49.722;8.612;2022-12-10T17:14:26;1.80;99.90
5723;DHT22;2886;49.722;8.612;2022-12-10T17:16:55;1.80;99.90
5723;DHT22;2886;49.722;8.612;2022-12-10T17:19:23;1.70;99.90
5723;DHT22;2886;49.722;8.612;2022-12-10T17:21:49;1.60;99.90
5723;DHT22;2886;49.722;8.612;2022-12-10T17:24:15;1.50;99.90
5723;DHT22;2886;49.722;8.612;2022-12-10T17:26:43;1.50;99.90
5723;DHT22;2886;49.722;8.612;2022-12-10T17:29:18;1.40;99.90
5723;DHT22;2886;49.722;8.612;2022-12-10T17:31:45;1.40;99.90
5723;DHT22;2886;49.722;8.612;2022-12-10T17:34:12;1.40;99.90
5723;DHT22;2886;49.722;8.612;2022-12-10T17:36:39;1.40;99.90
5723;DHT22;2886;49.722;8.612;2022-12-10T17:39:06;1.50;99.90
5723;DHT22;2886;49.722;8.612;2022-12-10T17:41:31;1.50;99.90
5723;DHT22;2886;49.722;8.612;2022-12-10T17:43:57;1.40;99.90
5723;DHT22;2886;49.722;8.612;2022-12-10T17:46:24;1.40;99.90
5723;DHT22;2886;49.722;8.612;2022-12-10T17:48:50;1.40;99.90
5723;DHT22;2886;49.722;8.612;2022-12-10T17:51:16;1.40;99.90
5723;DHT22;2886;49.722;8.612;2022-12-10T17:53:42;1.40;99.90
5723;DHT22;2886;49.722;8.612;2022-12-10T17:56:19;1.40;99.90
5723;DHT22;2886;49.722;8.612;2022-12-10T17:58:46;1.40;99.90
5723;DHT22;2886;49.722;8.612;2022-12-10T18:01:13;1.40;99.90
5723;DHT22;2886;49.722;8.612;2022-12-10T18:03:39;1.30;99.90
5723;DHT22;2886;49.722;8.612;2022-12-10T18:06:14;1.30;99.90
5723;DHT22;2886;49.722;8.612;2022-12-10T18:08:43;1.30;99.90
5723;DHT22;2886;49.722;8.612;2022-12-10T18:11:15;1.30;99.90
5723;DHT22;2886;49.722;8.612;2022-12-10T18:13:42;1.30;99.90
5723;DHT22;2886;49.722;8.612;2022-12-10T18:16:28;1.20;99.90
5723;DHT22;2886;49.722;8.612;2022-12-10T18:18:59;1.30;99.90
5723;DHT22;2886;49.722;8.612;2022-12-10T18:21:25;1.30;99.90
5723;DHT22;2886;49.722;8.612;2022-12-10T18:23:51;1.30;99.90
5723;DHT22;2886;49.722;8.612;2022-12-10T18:26:19;1.30;99.90
5723;DHT22;2886;49.722;8.612;2022-12-10T18:28:51;1.20;99.90